sensor_id;sensor_type;location;lat;lon;timestamp;P1;durP1;ratioP1;P2;durP2;ratioP2
48945;SDS011;34999;50.940;3.998;2024-03-22T00:03:57;55.17;;;30.23;;
48945;SDS011;34999;50.940;3.998;2024-03-22T00:06:24;54.47;;;30.23;;
48945;SDS011;34999;50.940;3.998;2024-03-22T00:08:51;55.23;;;29.70;;
48945;SDS011;34999;50.940;3.998;2024-03-22T00:11:18;55.40;;;29.73;;
48945;SDS011;34999;50.940;3.998;2024-03-22T00:17:08;56.70;;;30.23;;
48945;SDS011;34999;50.940;3.998;2024-03-22T00:19:36;54.20;;;29.37;;
48945;SDS011;34999;50.940;3.998;2024-03-22T00:22:03;52.13;;;28.30;;
48945;SDS011;34999;50.940;3.998;2024-03-22T00:24:31;52.37;;;28.50;;
48945;SDS011;34999;50.940;3.998;2024-03-22T00:26:57;51.73;;;28.27;;
48945;SDS011;34999;50.940;3.998;2024-03-22T00:29:24;46.03;;;27.27;;
48945;SDS011;34999;50.940;3.998;2024-03-22T00:31:52;51.53;;;27.83;;
48945;SDS011;34999;50.940;3.998;2024-03-22T00:34:19;55.23;;;27.57;;
48945;SDS011;34999;50.940;3.998;2024-03-22T00:36:47;44.70;;;25.10;;
48945;SDS011;34999;50.940;3.998;2024-03-22T00:42:22;44.90;;;23.57;;
48945;SDS011;34999;50.940;3.998;2024-03-22T00:44:50;44.27;;;23.17;;
48945;SDS011;34999;50.940;3.998;2024-03-22T00:47:16;43.53;;;22.73;;
48945;SDS011;34999;50.940;3.998;2024-03-22T00:49:43;40.70;;;22.93;;
48945;SDS011;34999;50.940;3.998;2024-03-22T00:52:11;44.80;;;22.13;;
48945;SDS011;34999;50.940;3.998;2024-03-22T00:54:38;43.10;;;22.83;;
48945;SDS011;34999;50.940;3.998;2024-03-22T00:57:06;41.93;;;22.20;;
48945;SDS011;34999;50.940;3.998;2024-03-22T00:59:33;42.83;;;24.03;;
48945;SDS011;34999;50.940;3.998;2024-03-22T01:02:00;38.43;;;23.03;;
48945;SDS011;34999;50.940;3.998;2024-03-22T01:04:27;45.33;;;23.47;;
48945;SDS011;34999;50.940;3.998;2024-03-22T01:06:54;40.10;;;22.13;;
48945;SDS011;34999;50.940;3.998;2024-03-22T01:09:22;37.03;;;22.30;;
48945;SDS011;34999;50.940;3.998;2024-03-22T01:11:48;43.63;;;23.27;;
48945;SDS011;34999;50.940;3.998;2024-03-22T01:14:16;40.90;;;23.60;;
48945;SDS011;34999;50.940;3.998;2024-03-22T01:16:42;38.37;;;22.13;;
48945;SDS011;34999;50.940;3.998;2024-03-22T01:19:09;39.97;;;22.73;;
48945;SDS011;34999;50.940;3.998;2024-03-22T01:21:39;38.30;;;22.20;;
48945;SDS011;34999;50.940;3.998;2024-03-22T01:24:06;38.67;;;21.53;;
48945;SDS011;34999;50.940;3.998;2024-03-22T01:26:34;36.30;;;20.47;;
48945;SDS011;34999;50.940;3.998;2024-03-22T01:29:02;40.30;;;21.83;;
48945;SDS011;34999;50.940;3.998;2024-03-22T01:31:28;40.73;;;21.23;;
48945;SDS011;34999;50.940;3.998;2024-03-22T01:33:55;42.77;;;21.57;;
48945;SDS011;34999;50.940;3.998;2024-03-22T01:36:22;37.83;;;21.07;;
48945;SDS011;34999;50.940;3.998;2024-03-22T01:38:49;38.27;;;20.87;;
48945;SDS011;34999;50.940;3.998;2024-03-22T01:41:18;39.30;;;21.30;;
48945;SDS011;34999;50.940;3.998;2024-03-22T01:43:47;40.60;;;21.47;;
48945;SDS011;34999;50.940;3.998;2024-03-22T01:46:14;38.60;;;20.33;;
48945;SDS011;34999;50.940;3.998;2024-03-22T01:48:40;41.00;;;20.93;;
48945;SDS011;34999;50.940;3.998;2024-03-22T01:53:54;45.07;;;20.20;;
48945;SDS011;34999;50.940;3.998;2024-03-22T01:56:24;41.90;;;19.40;;
48945;SDS011;34999;50.940;3.998;2024-03-22T01:58:52;39.87;;;20.70;;
48945;SDS011;34999;50.940;3.998;2024-03-22T02:01:20;42.33;;;21.17;;
48945;SDS011;34999;50.940;3.998;2024-03-22T02:03:46;40.97;;;20.50;;
48945;SDS011;34999;50.940;3.998;2024-03-22T02:06:14;35.40;;;20.00;;
48945;SDS011;34999;50.940;3.998;2024-03-22T02:08:40;39.57;;;21.03;;
48945;SDS011;34999;50.940;3.998;2024-03-22T02:11:09;38.20;;;20.67;;
48945;SDS011;34999;50.940;3.998;2024-03-22T02:13:36;39.43;;;21.40;;
48945;SDS011;34999;50.940;3.998;2024-03-22T02:16:05;40.00;;;20.77;;
48945;SDS011;34999;50.940;3.998;2024-03-22T02:18:32;41.57;;;21.73;;
48945;SDS011;34999;50.940;3.998;2024-03-22T02:20:59;41.70;;;20.93;;
48945;SDS011;34999;50.940;3.998;2024-03-22T02:23:32;37.67;;;21.13;;
48945;SDS011;34999;50.940;3.998;2024-03-22T02:26:00;40.23;;;21.13;;
48945;SDS011;34999;50.940;3.998;2024-03-22T02:28:27;40.60;;;21.37;;
48945;SDS011;34999;50.940;3.998;2024-03-22T02:30:54;36.70;;;20.67;;
48945;SDS011;34999;50.940;3.998;2024-03-22T02:33:22;45.70;;;22.07;;
48945;SDS011;34999;50.940;3.998;2024-03-22T02:35:49;41.93;;;21.50;;
48945;SDS011;34999;50.940;3.998;2024-03-22T02:38:15;41.73;;;21.53;;
48945;SDS011;34999;50.940;3.998;2024-03-22T02:40:45;43.70;;;21.20;;
48945;SDS011;34999;50.940;3.998;2024-03-22T02:43:12;47.77;;;21.30;;
48945;SDS011;34999;50.940;3.998;2024-03-22T02:45:40;37.87;;;19.90;;
48945;SDS011;34999;50.940;3.998;2024-03-22T02:48:06;38.97;;;19.80;;
48945;SDS011;34999;50.940;3.998;2024-03-22T02:50:34;38.70;;;19.93;;
48945;SDS011;34999;50.940;3.998;2024-03-22T02:53:00;37.67;;;19.57;;
48945;SDS011;34999;50.940;3.998;2024-03-22T02:55:28;39.93;;;19.80;;
48945;SDS011;34999;50.940;3.998;2024-03-22T02:57:57;37.03;;;19.90;;
48945;SDS011;34999;50.940;3.998;2024-03-22T03:00:24;41.70;;;19.57;;
48945;SDS011;34999;50.940;3.998;2024-03-22T03:02:51;35.43;;;18.83;;
48945;SDS011;34999;50.940;3.998;2024-03-22T03:05:18;35.97;;;18.90;;
48945;SDS011;34999;50.940;3.998;2024-03-22T03:07:44;39.00;;;18.47;;
48945;SDS011;34999;50.940;3.998;2024-03-22T03:10:13;41.83;;;19.10;;
48945;SDS011;34999;50.940;3.998;2024-03-22T03:12:39;35.47;;;18.27;;
48945;SDS011;34999;50.940;3.998;2024-03-22T03:15:08;38.40;;;18.63;;
48945;SDS011;34999;50.940;3.998;2024-03-22T03:17:35;33.83;;;17.73;;
48945;SDS011;34999;50.940;3.998;2024-03-22T03:20:03;35.73;;;17.73;;
48945;SDS011;34999;50.940;3.998;2024-03-22T03:32:35;27.73;;;14.53;;
48945;SDS011;34999;50.940;3.998;2024-03-22T03:35:02;27.00;;;14.70;;
48945;SDS011;34999;50.940;3.998;2024-03-22T03:37:30;25.57;;;14.60;;
48945;SDS011;34999;50.940;3.998;2024-03-22T03:39:58;30.33;;;14.67;;
48945;SDS011;34999;50.940;3.998;2024-03-22T03:42:24;34.40;;;14.80;;
48945;SDS011;34999;50.940;3.998;2024-03-22T03:44:51;28.07;;;15.10;;
48945;SDS011;34999;50.940;3.998;2024-03-22T03:47:18;26.40;;;15.53;;
48945;SDS011;34999;50.940;3.998;2024-03-22T03:49:46;23.83;;;14.57;;
48945;SDS011;34999;50.940;3.998;2024-03-22T03:52:13;28.00;;;15.57;;
48945;SDS011;34999;50.940;3.998;2024-03-22T03:54:40;29.57;;;14.47;;
48945;SDS011;34999;50.940;3.998;2024-03-22T03:57:07;29.50;;;16.27;;
48945;SDS011;34999;50.940;3.998;2024-03-22T03:59:34;33.30;;;17.23;;
48945;SDS011;34999;50.940;3.998;2024-03-22T04:02:01;30.07;;;16.10;;
48945;SDS011;34999;50.940;3.998;2024-03-22T04:04:28;28.73;;;15.87;;
48945;SDS011;34999;50.940;3.998;2024-03-22T04:06:56;24.07;;;14.30;;
48945;SDS011;34999;50.940;3.998;2024-03-22T04:09:23;23.00;;;13.40;;
48945;SDS011;34999;50.940;3.998;2024-03-22T04:11:50;24.53;;;14.20;;
48945;SDS011;34999;50.940;3.998;2024-03-22T04:14:17;25.77;;;14.53;;
48945;SDS011;34999;50.940;3.998;2024-03-22T04:16:43;25.70;;;13.90;;
48945;SDS011;34999;50.940;3.998;2024-03-22T04:19:11;23.13;;;13.17;;
48945;SDS011;34999;50.940;3.998;2024-03-22T04:21:37;23.23;;;13.03;;
48945;SDS011;34999;50.940;3.998;2024-03-22T04:27:47;24.23;;;13.23;;
48945;SDS011;34999;50.940;3.998;2024-03-22T04:30:14;26.33;;;14.20;;
48945;SDS011;34999;50.940;3.998;2024-03-22T04:32:40;28.23;;;14.17;;
48945;SDS011;34999;50.940;3.998;2024-03-22T04:35:08;26.30;;;14.50;;
48945;SDS011;34999;50.940;3.998;2024-03-22T04:37:35;23.63;;;13.93;;
48945;SDS011;34999;50.940;3.998;2024-03-22T04:40:02;25.30;;;14.37;;
48945;SDS011;34999;50.940;3.998;2024-03-22T04:42:31;24.50;;;13.43;;
48945;SDS011;34999;50.940;3.998;2024-03-22T04:45:00;24.07;;;14.20;;
48945;SDS011;34999;50.940;3.998;2024-03-22T04:47:28;26.97;;;14.13;;
48945;SDS011;34999;50.940;3.998;2024-03-22T04:49:54;24.57;;;14.20;;
48945;SDS011;34999;50.940;3.998;2024-03-22T04:52:22;22.60;;;13.10;;
48945;SDS011;34999;50.940;3.998;2024-03-22T04:54:48;23.30;;;13.17;;
48945;SDS011;34999;50.940;3.998;2024-03-22T04:57:15;27.63;;;13.83;;
48945;SDS011;34999;50.940;3.998;2024-03-22T04:59:44;24.13;;;12.43;;
48945;SDS011;34999;50.940;3.998;2024-03-22T05:02:12;22.77;;;12.97;;
48945;SDS011;34999;50.940;3.998;2024-03-22T05:04:39;23.43;;;12.87;;
48945;SDS011;34999;50.940;3.998;2024-03-22T05:07:06;22.13;;;12.67;;
48945;SDS011;34999;50.940;3.998;2024-03-22T05:09:32;22.20;;;12.83;;
48945;SDS011;34999;50.940;3.998;2024-03-22T05:12:00;22.57;;;12.83;;
48945;SDS011;34999;50.940;3.998;2024-03-22T05:14:26;20.17;;;11.73;;
48945;SDS011;34999;50.940;3.998;2024-03-22T05:16:53;21.77;;;12.63;;
48945;SDS011;34999;50.940;3.998;2024-03-22T05:19:21;22.30;;;12.10;;
48945;SDS011;34999;50.940;3.998;2024-03-22T05:21:51;24.57;;;12.57;;
48945;SDS011;34999;50.940;3.998;2024-03-22T05:24:17;21.13;;;12.60;;
48945;SDS011;34999;50.940;3.998;2024-03-22T05:26:44;20.00;;;11.73;;
48945;SDS011;34999;50.940;3.998;2024-03-22T05:29:11;21.73;;;12.33;;
48945;SDS011;34999;50.940;3.998;2024-03-22T05:34:27;24.03;;;13.17;;
48945;SDS011;34999;50.940;3.998;2024-03-22T05:36:54;21.50;;;12.83;;
48945;SDS011;34999;50.940;3.998;2024-03-22T05:39:20;20.67;;;12.13;;
48945;SDS011;34999;50.940;3.998;2024-03-22T05:41:48;21.00;;;12.17;;
48945;SDS011;34999;50.940;3.998;2024-03-22T05:44:14;21.73;;;12.77;;
48945;SDS011;34999;50.940;3.998;2024-03-22T05:46:41;24.23;;;13.27;;
48945;SDS011;34999;50.940;3.998;2024-03-22T05:49:08;21.97;;;12.77;;
48945;SDS011;34999;50.940;3.998;2024-03-22T05:51:39;22.83;;;12.90;;
48945;SDS011;34999;50.940;3.998;2024-03-22T05:54:06;21.90;;;12.80;;
48945;SDS011;34999;50.940;3.998;2024-03-22T05:56:33;21.63;;;12.47;;
48945;SDS011;34999;50.940;3.998;2024-03-22T05:59:00;21.97;;;11.67;;
48945;SDS011;34999;50.940;3.998;2024-03-22T06:01:27;20.90;;;12.00;;
48945;SDS011;34999;50.940;3.998;2024-03-22T06:03:55;24.27;;;13.10;;
48945;SDS011;34999;50.940;3.998;2024-03-22T06:06:21;23.10;;;12.90;;
48945;SDS011;34999;50.940;3.998;2024-03-22T06:11:46;24.90;;;13.10;;
48945;SDS011;34999;50.940;3.998;2024-03-22T06:17:36;19.73;;;11.33;;
48945;SDS011;34999;50.940;3.998;2024-03-22T06:20:04;21.33;;;10.90;;
48945;SDS011;34999;50.940;3.998;2024-03-22T06:22:31;15.87;;;9.13;;
48945;SDS011;34999;50.940;3.998;2024-03-22T06:24:59;12.63;;;8.57;;
48945;SDS011;34999;50.940;3.998;2024-03-22T06:27:26;12.13;;;7.27;;
48945;SDS011;34999;50.940;3.998;2024-03-22T06:29:53;11.07;;;7.00;;
48945;SDS011;34999;50.940;3.998;2024-03-22T06:32:19;9.43;;;6.93;;
48945;SDS011;34999;50.940;3.998;2024-03-22T06:34:47;8.93;;;6.90;;
48945;SDS011;34999;50.940;3.998;2024-03-22T06:37:14;10.57;;;6.60;;
48945;SDS011;34999;50.940;3.998;2024-03-22T06:39:41;10.87;;;6.57;;
48945;SDS011;34999;50.940;3.998;2024-03-22T06:45:50;8.53;;;6.93;;
48945;SDS011;34999;50.940;3.998;2024-03-22T06:48:19;10.40;;;7.47;;
48945;SDS011;34999;50.940;3.998;2024-03-22T06:50:45;10.03;;;7.17;;
48945;SDS011;34999;50.940;3.998;2024-03-22T06:53:15;9.27;;;6.97;;
48945;SDS011;34999;50.940;3.998;2024-03-22T06:55:41;11.07;;;7.33;;
48945;SDS011;34999;50.940;3.998;2024-03-22T06:58:08;11.77;;;7.57;;
48945;SDS011;34999;50.940;3.998;2024-03-22T07:00:35;9.67;;;7.30;;
48945;SDS011;34999;50.940;3.998;2024-03-22T07:03:04;9.37;;;7.50;;
48945;SDS011;34999;50.940;3.998;2024-03-22T07:05:31;12.57;;;7.60;;
48945;SDS011;34999;50.940;3.998;2024-03-22T07:07:58;11.17;;;7.97;;
48945;SDS011;34999;50.940;3.998;2024-03-22T07:10:25;11.40;;;7.60;;
48945;SDS011;34999;50.940;3.998;2024-03-22T07:12:54;10.60;;;8.10;;
48945;SDS011;34999;50.940;3.998;2024-03-22T07:15:21;11.07;;;7.67;;
48945;SDS011;34999;50.940;3.998;2024-03-22T07:17:48;14.93;;;8.77;;
48945;SDS011;34999;50.940;3.998;2024-03-22T07:20:16;11.07;;;8.00;;
48945;SDS011;34999;50.940;3.998;2024-03-22T07:22:44;12.40;;;8.43;;
48945;SDS011;34999;50.940;3.998;2024-03-22T07:25:11;12.30;;;8.10;;
48945;SDS011;34999;50.940;3.998;2024-03-22T07:27:38;10.67;;;8.03;;
48945;SDS011;34999;50.940;3.998;2024-03-22T07:30:05;11.47;;;8.23;;
48945;SDS011;34999;50.940;3.998;2024-03-22T07:32:33;14.20;;;8.17;;
48945;SDS011;34999;50.940;3.998;2024-03-22T07:34:59;11.63;;;7.97;;
48945;SDS011;34999;50.940;3.998;2024-03-22T07:37:28;10.87;;;8.10;;
48945;SDS011;34999;50.940;3.998;2024-03-22T07:39:56;9.13;;;8.03;;
48945;SDS011;34999;50.940;3.998;2024-03-22T07:45:10;9.53;;;7.33;;
48945;SDS011;34999;50.940;3.998;2024-03-22T07:47:37;12.80;;;8.00;;
48945;SDS011;34999;50.940;3.998;2024-03-22T07:50:04;17.50;;;8.47;;
48945;SDS011;34999;50.940;3.998;2024-03-22T07:52:34;11.03;;;7.67;;
48945;SDS011;34999;50.940;3.998;2024-03-22T07:55:00;11.93;;;8.43;;
48945;SDS011;34999;50.940;3.998;2024-03-22T07:57:28;11.17;;;8.27;;
48945;SDS011;34999;50.940;3.998;2024-03-22T07:59:56;14.10;;;8.40;;
48945;SDS011;34999;50.940;3.998;2024-03-22T08:02:23;12.37;;;8.10;;
48945;SDS011;34999;50.940;3.998;2024-03-22T08:04:50;10.40;;;7.83;;
48945;SDS011;34999;50.940;3.998;2024-03-22T08:07:17;10.93;;;7.93;;
48945;SDS011;34999;50.940;3.998;2024-03-22T08:09:45;11.63;;;7.83;;
48945;SDS011;34999;50.940;3.998;2024-03-22T08:12:13;16.10;;;8.60;;
48945;SDS011;34999;50.940;3.998;2024-03-22T08:14:39;10.87;;;8.33;;
48945;SDS011;34999;50.940;3.998;2024-03-22T08:17:06;12.67;;;8.23;;
48945;SDS011;34999;50.940;3.998;2024-03-22T08:19:34;10.63;;;8.03;;
48945;SDS011;34999;50.940;3.998;2024-03-22T08:22:02;12.80;;;8.43;;
48945;SDS011;34999;50.940;3.998;2024-03-22T08:24:28;14.27;;;8.13;;
48945;SDS011;34999;50.940;3.998;2024-03-22T08:26:57;13.37;;;8.37;;
48945;SDS011;34999;50.940;3.998;2024-03-22T08:29:24;14.00;;;8.77;;
48945;SDS011;34999;50.940;3.998;2024-03-22T08:31:51;14.23;;;8.47;;
48945;SDS011;34999;50.940;3.998;2024-03-22T08:34:18;13.10;;;8.83;;
48945;SDS011;34999;50.940;3.998;2024-03-22T08:36:46;12.47;;;8.73;;
48945;SDS011;34999;50.940;3.998;2024-03-22T08:39:12;14.10;;;9.20;;
48945;SDS011;34999;50.940;3.998;2024-03-22T08:41:40;13.13;;;8.30;;
48945;SDS011;34999;50.940;3.998;2024-03-22T08:44:08;13.30;;;8.40;;
48945;SDS011;34999;50.940;3.998;2024-03-22T08:46:35;12.67;;;8.70;;
48945;SDS011;34999;50.940;3.998;2024-03-22T08:49:02;14.60;;;8.80;;
48945;SDS011;34999;50.940;3.998;2024-03-22T08:51:29;11.43;;;8.37;;
48945;SDS011;34999;50.940;3.998;2024-03-22T08:53:56;13.90;;;8.90;;
48945;SDS011;34999;50.940;3.998;2024-03-22T08:56:23;13.93;;;9.33;;
48945;SDS011;34999;50.940;3.998;2024-03-22T08:58:49;15.57;;;10.40;;
48945;SDS011;34999;50.940;3.998;2024-03-22T09:01:18;16.57;;;9.90;;
48945;SDS011;34999;50.940;3.998;2024-03-22T09:03:44;13.57;;;9.03;;
48945;SDS011;34999;50.940;3.998;2024-03-22T09:06:12;14.80;;;10.03;;
48945;SDS011;34999;50.940;3.998;2024-03-22T09:08:38;15.73;;;9.33;;
48945;SDS011;34999;50.940;3.998;2024-03-22T09:11:06;16.33;;;9.07;;
48945;SDS011;34999;50.940;3.998;2024-03-22T09:13:33;16.40;;;8.80;;
48945;SDS011;34999;50.940;3.998;2024-03-22T09:16:00;14.17;;;9.10;;
48945;SDS011;34999;50.940;3.998;2024-03-22T09:18:29;20.80;;;9.60;;
48945;SDS011;34999;50.940;3.998;2024-03-22T09:20:58;16.13;;;9.67;;
48945;SDS011;34999;50.940;3.998;2024-03-22T09:23:24;11.90;;;9.13;;
48945;SDS011;34999;50.940;3.998;2024-03-22T09:25:52;14.57;;;8.73;;
48945;SDS011;34999;50.940;3.998;2024-03-22T09:28:18;15.57;;;8.70;;
48945;SDS011;34999;50.940;3.998;2024-03-22T09:30:46;12.90;;;8.03;;
48945;SDS011;34999;50.940;3.998;2024-03-22T09:33:13;16.07;;;9.27;;
48945;SDS011;34999;50.940;3.998;2024-03-22T09:35:42;15.57;;;7.67;;
48945;SDS011;34999;50.940;3.998;2024-03-22T09:38:08;12.73;;;8.13;;
48945;SDS011;34999;50.940;3.998;2024-03-22T09:40:37;13.07;;;7.63;;
48945;SDS011;34999;50.940;3.998;2024-03-22T09:43:05;13.73;;;7.70;;
48945;SDS011;34999;50.940;3.998;2024-03-22T09:45:33;17.10;;;7.90;;
48945;SDS011;34999;50.940;3.998;2024-03-22T09:48:00;10.17;;;6.87;;
48945;SDS011;34999;50.940;3.998;2024-03-22T09:50:28;12.57;;;6.87;;
48945;SDS011;34999;50.940;3.998;2024-03-22T09:52:56;13.30;;;6.70;;
48945;SDS011;34999;50.940;3.998;2024-03-22T09:55:24;9.73;;;6.20;;
48945;SDS011;34999;50.940;3.998;2024-03-22T09:57:50;10.17;;;6.20;;
48945;SDS011;34999;50.940;3.998;2024-03-22T10:00:19;13.17;;;6.93;;
48945;SDS011;34999;50.940;3.998;2024-03-22T10:02:47;9.67;;;6.33;;
48945;SDS011;34999;50.940;3.998;2024-03-22T10:05:16;10.17;;;6.30;;
48945;SDS011;34999;50.940;3.998;2024-03-22T10:07:43;13.47;;;5.90;;
48945;SDS011;34999;50.940;3.998;2024-03-22T10:10:11;10.27;;;6.40;;
48945;SDS011;34999;50.940;3.998;2024-03-22T10:12:39;9.17;;;6.03;;
48945;SDS011;34999;50.940;3.998;2024-03-22T10:15:07;15.50;;;6.33;;
48945;SDS011;34999;50.940;3.998;2024-03-22T10:17:34;11.17;;;6.67;;
48945;SDS011;34999;50.940;3.998;2024-03-22T10:20:02;9.73;;;6.90;;
48945;SDS011;34999;50.940;3.998;2024-03-22T10:22:29;10.67;;;5.97;;
48945;SDS011;34999;50.940;3.998;2024-03-22T10:24:56;9.63;;;6.27;;
48945;SDS011;34999;50.940;3.998;2024-03-22T10:27:28;12.97;;;6.17;;
48945;SDS011;34999;50.940;3.998;2024-03-22T10:29:55;11.10;;;6.70;;
48945;SDS011;34999;50.940;3.998;2024-03-22T10:32:23;13.80;;;6.50;;
48945;SDS011;34999;50.940;3.998;2024-03-22T10:34:51;10.33;;;6.53;;
48945;SDS011;34999;50.940;3.998;2024-03-22T10:37:18;11.57;;;6.70;;
48945;SDS011;34999;50.940;3.998;2024-03-22T10:39:46;11.90;;;6.80;;
48945;SDS011;34999;50.940;3.998;2024-03-22T10:42:18;11.77;;;6.80;;
48945;SDS011;34999;50.940;3.998;2024-03-22T10:44:47;9.93;;;6.60;;
48945;SDS011;34999;50.940;3.998;2024-03-22T10:47:13;10.07;;;6.67;;
48945;SDS011;34999;50.940;3.998;2024-03-22T10:49:43;13.37;;;7.27;;
48945;SDS011;34999;50.940;3.998;2024-03-22T10:52:13;10.73;;;6.57;;
48945;SDS011;34999;50.940;3.998;2024-03-22T10:54:43;11.87;;;6.77;;
48945;SDS011;34999;50.940;3.998;2024-03-22T10:57:11;15.67;;;7.23;;
48945;SDS011;34999;50.940;3.998;2024-03-22T10:59:40;13.70;;;7.17;;
48945;SDS011;34999;50.940;3.998;2024-03-22T11:02:10;13.23;;;6.80;;
48945;SDS011;34999;50.940;3.998;2024-03-22T11:04:38;11.97;;;6.53;;
48945;SDS011;34999;50.940;3.998;2024-03-22T11:07:04;12.13;;;6.50;;
48945;SDS011;34999;50.940;3.998;2024-03-22T11:15:42;12.93;;;6.73;;
48945;SDS011;34999;50.940;3.998;2024-03-22T11:18:10;9.73;;;6.77;;
48945;SDS011;34999;50.940;3.998;2024-03-22T11:20:38;13.63;;;6.90;;
48945;SDS011;34999;50.940;3.998;2024-03-22T11:23:04;17.47;;;6.80;;
48945;SDS011;34999;50.940;3.998;2024-03-22T11:25:34;11.00;;;6.03;;
48945;SDS011;34999;50.940;3.998;2024-03-22T11:28:01;13.03;;;6.53;;
48945;SDS011;34999;50.940;3.998;2024-03-22T11:30:32;13.57;;;6.70;;
48945;SDS011;34999;50.940;3.998;2024-03-22T11:33:00;15.77;;;7.07;;
48945;SDS011;34999;50.940;3.998;2024-03-22T11:35:29;12.00;;;7.20;;
48945;SDS011;34999;50.940;3.998;2024-03-22T11:37:56;14.43;;;6.67;;
48945;SDS011;34999;50.940;3.998;2024-03-22T11:40:24;15.47;;;7.10;;
48945;SDS011;34999;50.940;3.998;2024-03-22T11:42:51;13.80;;;7.20;;
48945;SDS011;34999;50.940;3.998;2024-03-22T11:45:21;13.27;;;6.60;;
48945;SDS011;34999;50.940;3.998;2024-03-22T11:47:49;19.03;;;6.73;;
48945;SDS011;34999;50.940;3.998;2024-03-22T11:50:16;10.63;;;6.33;;
48945;SDS011;34999;50.940;3.998;2024-03-22T11:59:01;9.03;;;6.20;;
48945;SDS011;34999;50.940;3.998;2024-03-22T12:01:29;15.73;;;7.40;;
48945;SDS011;34999;50.940;3.998;2024-03-22T12:03:55;13.30;;;6.70;;
48945;SDS011;34999;50.940;3.998;2024-03-22T12:06:23;12.77;;;6.73;;
48945;SDS011;34999;50.940;3.998;2024-03-22T12:08:49;13.67;;;6.80;;
48945;SDS011;34999;50.940;3.998;2024-03-22T12:11:16;12.77;;;6.80;;
48945;SDS011;34999;50.940;3.998;2024-03-22T12:13:43;14.57;;;6.80;;
48945;SDS011;34999;50.940;3.998;2024-03-22T12:16:11;14.63;;;6.30;;
48945;SDS011;34999;50.940;3.998;2024-03-22T12:18:38;18.97;;;6.60;;
48945;SDS011;34999;50.940;3.998;2024-03-22T12:21:05;16.83;;;6.67;;
48945;SDS011;34999;50.940;3.998;2024-03-22T12:23:32;13.00;;;6.67;;
48945;SDS011;34999;50.940;3.998;2024-03-22T12:25:59;12.10;;;6.70;;
48945;SDS011;34999;50.940;3.998;2024-03-22T12:28:26;11.27;;;6.57;;
48945;SDS011;34999;50.940;3.998;2024-03-22T12:30:53;13.17;;;6.97;;
48945;SDS011;34999;50.940;3.998;2024-03-22T12:33:21;14.83;;;6.60;;
48945;SDS011;34999;50.940;3.998;2024-03-22T12:35:48;12.63;;;5.93;;
48945;SDS011;34999;50.940;3.998;2024-03-22T12:38:15;11.63;;;6.07;;
48945;SDS011;34999;50.940;3.998;2024-03-22T12:40:43;13.90;;;6.23;;
48945;SDS011;34999;50.940;3.998;2024-03-22T12:43:09;8.13;;;5.60;;
48945;SDS011;34999;50.940;3.998;2024-03-22T12:45:37;9.87;;;6.80;;
48945;SDS011;34999;50.940;3.998;2024-03-22T12:48:04;13.43;;;6.57;;
48945;SDS011;34999;50.940;3.998;2024-03-22T12:50:33;15.03;;;7.30;;
48945;SDS011;34999;50.940;3.998;2024-03-22T12:53:01;16.73;;;7.87;;
48945;SDS011;34999;50.940;3.998;2024-03-22T12:55:28;14.73;;;7.77;;
48945;SDS011;34999;50.940;3.998;2024-03-22T12:57:56;11.60;;;7.70;;
48945;SDS011;34999;50.940;3.998;2024-03-22T13:00:24;15.83;;;8.53;;
48945;SDS011;34999;50.940;3.998;2024-03-22T13:02:51;16.17;;;8.23;;
48945;SDS011;34999;50.940;3.998;2024-03-22T13:05:18;17.47;;;8.23;;
48945;SDS011;34999;50.940;3.998;2024-03-22T13:07:46;17.87;;;9.10;;
48945;SDS011;34999;50.940;3.998;2024-03-22T13:10:13;16.33;;;9.13;;
48945;SDS011;34999;50.940;3.998;2024-03-22T13:12:40;20.00;;;9.60;;
48945;SDS011;34999;50.940;3.998;2024-03-22T13:15:08;18.70;;;10.27;;
48945;SDS011;34999;50.940;3.998;2024-03-22T13:17:35;20.53;;;9.60;;
48945;SDS011;34999;50.940;3.998;2024-03-22T13:20:02;15.17;;;9.30;;
48945;SDS011;34999;50.940;3.998;2024-03-22T13:22:36;17.77;;;9.43;;
48945;SDS011;34999;50.940;3.998;2024-03-22T13:25:05;15.33;;;9.07;;
48945;SDS011;34999;50.940;3.998;2024-03-22T13:27:34;15.67;;;9.03;;
48945;SDS011;34999;50.940;3.998;2024-03-22T13:30:05;15.53;;;9.07;;
48945;SDS011;34999;50.940;3.998;2024-03-22T13:32:35;12.77;;;9.13;;
48945;SDS011;34999;50.940;3.998;2024-03-22T13:35:03;16.67;;;9.00;;
48945;SDS011;34999;50.940;3.998;2024-03-22T13:37:30;10.97;;;9.37;;
48945;SDS011;34999;50.940;3.998;2024-03-22T13:39:58;17.57;;;9.97;;
48945;SDS011;34999;50.940;3.998;2024-03-22T13:42:26;12.70;;;9.37;;
48945;SDS011;34999;50.940;3.998;2024-03-22T13:44:53;15.47;;;9.47;;
48945;SDS011;34999;50.940;3.998;2024-03-22T13:47:21;20.03;;;10.63;;
48945;SDS011;34999;50.940;3.998;2024-03-22T13:49:48;13.43;;;9.40;;
48945;SDS011;34999;50.940;3.998;2024-03-22T13:52:14;14.43;;;9.10;;
48945;SDS011;34999;50.940;3.998;2024-03-22T13:54:43;18.93;;;9.80;;
48945;SDS011;34999;50.940;3.998;2024-03-22T13:57:09;15.43;;;10.17;;
48945;SDS011;34999;50.940;3.998;2024-03-22T13:59:39;14.67;;;10.03;;
48945;SDS011;34999;50.940;3.998;2024-03-22T14:02:05;15.80;;;10.37;;
48945;SDS011;34999;50.940;3.998;2024-03-22T14:04:33;24.50;;;10.10;;
48945;SDS011;34999;50.940;3.998;2024-03-22T14:13:30;18.50;;;9.70;;
48945;SDS011;34999;50.940;3.998;2024-03-22T14:15:58;12.83;;;9.47;;
48945;SDS011;34999;50.940;3.998;2024-03-22T14:18:25;16.53;;;10.10;;
48945;SDS011;34999;50.940;3.998;2024-03-22T14:20:52;12.77;;;9.13;;
48945;SDS011;34999;50.940;3.998;2024-03-22T14:23:19;14.23;;;9.63;;
48945;SDS011;34999;50.940;3.998;2024-03-22T14:25:45;15.50;;;10.17;;
48945;SDS011;34999;50.940;3.998;2024-03-22T14:28:14;16.17;;;9.87;;
48945;SDS011;34999;50.940;3.998;2024-03-22T14:30:40;12.00;;;9.87;;
48945;SDS011;34999;50.940;3.998;2024-03-22T14:33:09;14.83;;;9.40;;
48945;SDS011;34999;50.940;3.998;2024-03-22T14:35:35;12.43;;;9.30;;
48945;SDS011;34999;50.940;3.998;2024-03-22T14:38:03;13.83;;;9.07;;
48945;SDS011;34999;50.940;3.998;2024-03-22T14:40:29;14.43;;;8.90;;
48945;SDS011;34999;50.940;3.998;2024-03-22T14:43:02;14.00;;;9.40;;
48945;SDS011;34999;50.940;3.998;2024-03-22T14:45:29;16.23;;;9.40;;
48945;SDS011;34999;50.940;3.998;2024-03-22T14:47:56;12.30;;;8.97;;
48945;SDS011;34999;50.940;3.998;2024-03-22T14:50:24;12.40;;;9.40;;
48945;SDS011;34999;50.940;3.998;2024-03-22T14:52:51;10.47;;;8.67;;
48945;SDS011;34999;50.940;3.998;2024-03-22T14:55:18;14.83;;;8.67;;
48945;SDS011;34999;50.940;3.998;2024-03-22T14:57:46;11.70;;;8.37;;
48945;SDS011;34999;50.940;3.998;2024-03-22T15:00:13;11.70;;;9.47;;
48945;SDS011;34999;50.940;3.998;2024-03-22T15:02:41;15.50;;;9.43;;
48945;SDS011;34999;50.940;3.998;2024-03-22T15:05:08;14.33;;;8.90;;
48945;SDS011;34999;50.940;3.998;2024-03-22T15:10:40;12.57;;;8.67;;
48945;SDS011;34999;50.940;3.998;2024-03-22T15:15:53;12.97;;;8.57;;
48945;SDS011;34999;50.940;3.998;2024-03-22T15:18:21;11.87;;;9.33;;
48945;SDS011;34999;50.940;3.998;2024-03-22T15:20:48;16.83;;;8.67;;
48945;SDS011;34999;50.940;3.998;2024-03-22T15:23:17;10.40;;;8.10;;
48945;SDS011;34999;50.940;3.998;2024-03-22T15:25:45;16.33;;;8.73;;
48945;SDS011;34999;50.940;3.998;2024-03-22T15:28:13;13.17;;;8.97;;
48945;SDS011;34999;50.940;3.998;2024-03-22T15:30:39;14.90;;;9.60;;
48945;SDS011;34999;50.940;3.998;2024-03-22T15:33:08;17.03;;;10.33;;
48945;SDS011;34999;50.940;3.998;2024-03-22T15:35:34;13.40;;;9.67;;